createdAt,value
2019-02-16T00:03:45.842Z,"    0"
2019-02-16T00:08:41.643Z,"    0"
2019-02-16T00:13:36.868Z,"    0"
2019-02-16T00:18:32.522Z,"    0"
2019-02-16T00:23:27.920Z,"    0"
2019-02-16T00:28:24.260Z,"    0"
2019-02-16T00:33:19.617Z,"    0"
2019-02-16T00:38:16.189Z,"    0"
2019-02-16T00:43:11.007Z,"    0"
2019-02-16T00:48:06.581Z,"    0"
2019-02-16T00:53:03.921Z,"    0"
2019-02-16T00:57:59.466Z,"    0"
2019-02-16T01:02:55.050Z,"    0"
2019-02-16T01:07:51.039Z,"    0"
2019-02-16T01:12:47.329Z,"    0"
2019-02-16T01:17:43.957Z,"    0"
2019-02-16T01:22:40.341Z,"    0"
2019-02-16T01:27:36.462Z,"    0"
2019-02-16T01:32:32.138Z,"    0"
2019-02-16T01:37:28.563Z,"    0"
2019-02-16T01:42:23.903Z,"    0"
2019-02-16T01:47:19.529Z,"    0"
2019-02-16T01:52:16.087Z,"    0"
2019-02-16T01:57:11.382Z,"    0"
2019-02-16T02:02:07.984Z,"    0"
2019-02-16T02:07:03.600Z,"    0"
2019-02-16T02:11:59.139Z,"    0"
2019-02-16T02:16:54.780Z,"    0"
2019-02-16T02:21:50.606Z,"    0"
2019-02-16T02:26:46.382Z,"    0"
2019-02-16T02:31:41.951Z,"    0"
2019-02-16T02:36:37.507Z,"    0"
2019-02-16T02:41:33.094Z,"    0"
2019-02-16T02:46:29.899Z,"    0"
2019-02-16T02:51:25.127Z,"    0"
2019-02-16T02:56:20.997Z,"    0"
2019-02-16T03:01:16.519Z,"    0"
2019-02-16T03:06:12.173Z,"    0"
2019-02-16T03:11:07.743Z,"    0"
2019-02-16T03:16:03.530Z,"    0"
2019-02-16T03:20:59.140Z,"    0"
2019-02-16T03:25:54.275Z,"    0"
2019-02-16T03:30:50.841Z,"    0"
2019-02-16T03:35:46.153Z,"    0"
2019-02-16T03:40:43.005Z,"    0"
2019-02-16T03:45:38.281Z,"    0"
2019-02-16T03:50:35.597Z,"    0"
2019-02-16T03:55:30.960Z,"    0"
2019-02-16T04:00:26.515Z,"    0"
2019-02-16T04:05:22.150Z,"    0"
2019-02-16T04:10:17.229Z,"    0"
2019-02-16T04:15:12.870Z,"    0"
2019-02-16T04:20:08.567Z,"    0"
2019-02-16T04:25:05.510Z,"    0"
2019-02-16T04:30:00.833Z,"    0"
2019-02-16T04:34:57.107Z,"    0"
2019-02-16T04:39:52.558Z,"    0"
2019-02-16T04:44:49.056Z,"    0"
2019-02-16T04:49:44.225Z,"    0"
2019-02-16T04:54:40.472Z,"    0"
2019-02-16T04:59:35.957Z,"    0"
2019-02-16T05:04:32.175Z,"    0"
2019-02-16T05:09:27.797Z,"    0"
2019-02-16T05:14:23.321Z,"    0"
2019-02-16T05:19:18.998Z,"    0"
2019-02-16T05:24:14.482Z,"    0"
2019-02-16T05:29:11.172Z,"    0"
2019-02-16T05:34:06.444Z,"    0"
2019-02-16T05:39:01.968Z,"    0"
2019-02-16T05:43:57.590Z,"    0"
2019-02-16T05:48:53.463Z,"    0"
2019-02-16T05:53:49.674Z,"    0"
2019-02-16T05:58:45.360Z,"    0"
2019-02-16T06:03:40.989Z,"    0"
2019-02-16T06:08:36.671Z,"    0"
2019-02-16T06:13:32.247Z,"    0"
2019-02-16T06:18:27.998Z,"    8"
2019-02-16T06:23:23.830Z,"   16"
2019-02-16T06:28:19.488Z,"   32"
2019-02-16T06:33:15.726Z,"   72"
2019-02-16T06:38:12.262Z,"  128"
2019-02-16T06:43:08.690Z,"  208"
2019-02-16T06:48:04.078Z,"  304"
2019-02-16T06:52:59.794Z,"  420"
2019-02-16T06:57:56.602Z,"  544"
2019-02-16T07:02:53.031Z,"  672"
2019-02-16T07:07:48.457Z,"  804"
2019-02-16T07:12:43.986Z,"  932"
2019-02-16T07:17:39.676Z," 1048"
2019-02-16T07:22:36.469Z," 1168"
2019-02-16T07:27:31.675Z," 1280"
2019-02-16T07:32:27.822Z," 1416"
2019-02-16T07:37:23.651Z," 1560"
2019-02-16T07:42:20.440Z," 1624"
2019-02-16T07:47:15.881Z," 1756"
2019-02-16T07:52:12.988Z," 1896"
2019-02-16T07:57:08.520Z," 2160"
2019-02-16T08:02:03.887Z," 1956"
2019-02-16T08:06:59.633Z," 2168"
2019-02-16T08:11:55.537Z," 2268"
2019-02-16T08:16:51.862Z," 2232"
2019-02-16T08:21:47.596Z," 2300"
2019-02-16T08:26:43.502Z," 2292"
2019-02-16T08:31:39.291Z," 2540"
2019-02-16T08:36:36.235Z," 2628"
2019-02-16T08:41:31.490Z," 2400"
2019-02-16T08:46:28.341Z," 2512"
2019-02-16T08:51:24.906Z," 2768"
2019-02-16T08:56:20.581Z," 3232"
2019-02-16T09:01:16.780Z," 3024"
2019-02-16T09:06:13.764Z," 2800"
2019-02-16T09:11:10.383Z," 4092"
2019-02-16T09:16:06.089Z," 2952"
2019-02-16T09:21:02.177Z," 3696"
2019-02-16T09:25:58.209Z," 3736"
2019-02-16T09:30:55.201Z," 3412"
2019-02-16T09:35:50.641Z," 3320"
2019-02-16T09:40:46.015Z," 5820"
2019-02-16T09:45:43.171Z," 4516"
2019-02-16T09:50:38.885Z," 3884"
2019-02-16T09:55:35.023Z," 5052"
2019-02-16T10:00:31.219Z," 9504"
2019-02-16T10:05:27.438Z," 8776"
2019-02-16T10:10:23.996Z," 5544"
2019-02-16T10:15:21.000Z," 7380"
2019-02-16T10:20:16.767Z,15364
2019-02-16T10:25:12.860Z," 8532"
2019-02-16T10:30:10.460Z," 8360"
2019-02-16T10:35:07.183Z,12944
2019-02-16T10:40:03.373Z,12528
2019-02-16T10:45:00.211Z,10628
2019-02-16T10:49:55.489Z," 7384"
2019-02-16T10:54:51.835Z," 9540"
2019-02-16T10:59:48.713Z,14652
2019-02-16T11:04:44.834Z,13396
2019-02-16T11:09:40.965Z,14148
2019-02-16T11:14:37.032Z,19456
2019-02-16T11:19:33.323Z,21856
2019-02-16T11:24:36.163Z,30528
2019-02-16T11:29:30.095Z,24256
2019-02-16T11:34:26.488Z,21888
2019-02-16T11:39:22.208Z,20032
2019-02-16T11:44:18.932Z,27360
2019-02-16T11:49:15.163Z,14116
2019-02-16T11:54:11.414Z,11304
2019-02-16T11:59:07.189Z,11040
2019-02-16T12:04:02.935Z,19744
2019-02-16T12:08:58.799Z,19296
2019-02-16T12:13:55.865Z,13444
2019-02-16T12:18:52.635Z," 5904"
2019-02-16T12:23:47.931Z,10724
2019-02-16T12:28:43.858Z,10028
2019-02-16T12:33:39.574Z," 9208"
2019-02-16T12:38:36.732Z," 9580"
2019-02-16T12:43:32.344Z,11568
2019-02-16T12:48:28.234Z," 6456"
2019-02-16T12:53:25.439Z,13332
2019-02-16T12:58:21.062Z," 4940"
2019-02-16T13:03:16.959Z," 4620"
2019-02-16T13:08:12.691Z," 4248"
2019-02-16T13:13:10.327Z," 3988"
2019-02-16T13:18:06.724Z," 3936"
2019-02-16T13:23:03.313Z," 4172"
2019-02-16T13:27:58.865Z," 4356"
2019-02-16T13:32:54.535Z," 4192"
2019-02-16T13:37:50.257Z," 4400"
2019-02-16T13:42:46.641Z," 4324"
2019-02-16T13:47:42.287Z," 4272"
2019-02-16T13:52:39.639Z," 4240"
2019-02-16T13:57:36.095Z," 4172"
2019-02-16T14:02:31.344Z," 4396"
2019-02-16T14:07:27.195Z," 4512"
2019-02-16T14:12:23.437Z," 4536"
2019-02-16T14:17:19.433Z," 4388"
2019-02-16T14:22:15.403Z," 4116"
2019-02-16T14:27:10.550Z," 3864"
2019-02-16T14:32:07.455Z," 3596"
2019-02-16T14:37:02.914Z," 3680"
2019-02-16T14:41:58.528Z," 3520"
2019-02-16T14:46:54.156Z," 3372"
2019-02-16T14:51:51.179Z," 3176"
2019-02-16T14:56:47.006Z," 3168"
2019-02-16T15:01:43.448Z," 2984"
2019-02-16T15:06:38.938Z," 2864"
2019-02-16T15:11:34.631Z," 2612"
2019-02-16T15:16:31.095Z," 2468"
2019-02-16T15:21:26.665Z," 2360"
2019-02-16T15:26:28.638Z," 1952"
2019-02-16T15:31:22.073Z," 1804"
2019-02-16T15:36:23.805Z," 1708"
2019-02-16T15:41:17.087Z," 1608"
2019-02-16T15:46:12.444Z," 1516"
2019-02-16T15:51:08.404Z," 1412"
2019-02-16T15:56:10.043Z," 1268"
2019-02-16T16:01:03.482Z," 1128"
2019-02-16T16:05:59.168Z,"  968"
2019-02-16T16:10:55.157Z,"  808"
2019-02-16T16:15:51.722Z,"  672"
2019-02-16T16:20:47.066Z,"  544"
2019-02-16T16:25:42.588Z,"  428"
2019-02-16T16:30:39.852Z,"  328"
2019-02-16T17:01:25.634Z,"   16"
2019-02-16T17:17:37.789Z,"    0"
2019-02-16T17:22:28.887Z,"    0"
2019-02-16T17:27:24.374Z,"    0"
2019-02-16T17:32:20.967Z,"    0"
2019-02-16T17:37:16.595Z,"    0"
2019-02-16T17:42:12.341Z,"    0"
2019-02-16T17:47:17.450Z,"    0"
2019-02-16T18:07:30.488Z,"    0"
2019-02-16T18:12:26.062Z,"    0"
2019-02-16T18:17:21.805Z,"    0"
2019-02-16T18:22:17.095Z,"    0"
2019-02-16T18:27:12.831Z,"    0"
2019-02-16T18:32:08.549Z,"    0"
2019-02-16T18:37:11.509Z,"    0"
2019-02-16T18:42:06.295Z,"    0"
2019-02-16T18:47:03.427Z,"    0"
2019-02-16T18:51:59.054Z,"    0"
2019-02-16T18:56:55.783Z,"    0"
2019-02-16T19:01:51.157Z,"    0"
2019-02-16T19:06:47.624Z,"    0"
2019-02-16T19:11:43.062Z,"    0"
2019-02-16T19:16:39.622Z,"    0"
2019-02-16T19:21:34.951Z,"    0"
2019-02-16T19:26:30.818Z,"    0"
2019-02-16T19:31:26.708Z,"    0"
2019-02-16T19:36:22.088Z,"    0"
2019-02-16T19:41:18.705Z,"    0"
2019-02-16T19:46:14.468Z,"    0"
2019-02-16T19:51:10.152Z,"    0"
2019-02-16T19:56:06.274Z,"    0"
2019-02-16T20:01:02.009Z,"    0"
2019-02-16T20:05:57.671Z,"    0"
2019-02-16T20:10:53.971Z,"    0"
2019-02-16T20:15:49.085Z,"    0"
2019-02-16T20:20:44.781Z,"    0"
2019-02-16T20:25:40.888Z,"    0"
2019-02-16T20:30:36.288Z,"    0"
2019-02-16T20:35:31.987Z,"    0"
2019-02-16T20:40:28.260Z,"    0"
2019-02-16T20:45:24.697Z,"    0"
2019-02-16T20:50:20.373Z,"    0"
2019-02-16T20:55:15.960Z,"    0"
2019-02-16T21:00:11.766Z,"    0"
2019-02-16T21:05:07.540Z,"    0"
2019-02-16T21:10:05.044Z,"    0"
2019-02-16T21:15:00.328Z,"    0"
2019-02-16T21:19:56.001Z,"    0"
2019-02-16T21:24:52.176Z,"    0"
2019-02-16T21:29:47.602Z,"    0"
2019-02-16T21:34:43.330Z,"    0"
2019-02-16T21:39:40.856Z,"    0"
2019-02-16T21:44:36.231Z,"    0"
2019-02-16T21:49:31.864Z,"    0"
2019-02-16T21:54:28.517Z,"    0"
2019-02-16T21:59:23.746Z,"    0"
2019-02-16T22:04:20.680Z,"    0"
2019-02-16T22:09:16.860Z,"    0"
2019-02-16T22:14:12.599Z,"    0"
2019-02-16T22:19:08.366Z,"    0"
2019-02-16T22:24:05.110Z,"    0"
2019-02-16T22:29:00.583Z,"    0"
2019-02-16T22:33:56.064Z,"    0"
2019-02-16T22:38:51.621Z,"    0"
2019-02-16T22:43:47.258Z,"    0"
2019-02-16T22:48:42.929Z,"    0"
2019-02-16T22:53:38.647Z,"    0"
2019-02-16T22:58:34.202Z,"    0"
2019-02-16T23:03:30.014Z,"    0"
2019-02-16T23:08:25.746Z,"    0"
2019-02-16T23:13:21.439Z,"    0"
2019-02-16T23:18:18.002Z,"    0"
2019-02-16T23:23:13.426Z,"    0"
2019-02-16T23:28:09.014Z,"    0"
2019-02-16T23:33:04.884Z,"    0"
2019-02-16T23:38:00.500Z,"    0"
2019-02-16T23:42:56.170Z,"    0"
2019-02-16T23:47:52.689Z,"    0"
2019-02-16T23:52:48.560Z,"    0"
2019-02-16T23:57:44.285Z,"    0"
